sensor_id;sensor_type;location;lat;lon;timestamp;P1;durP1;ratioP1;P2;durP2;ratioP2
26211;SDS011;13951;49.516;6.094;2023-04-23T00:02:07;4.40;;;3.00;;
26211;SDS011;13951;49.516;6.094;2023-04-23T00:04:50;3.90;;;2.77;;
26211;SDS011;13951;49.516;6.094;2023-04-23T00:07:24;4.83;;;3.30;;
26211;SDS011;13951;49.516;6.094;2023-04-23T00:09:58;4.07;;;3.27;;
26211;SDS011;13951;49.516;6.094;2023-04-23T00:12:32;4.83;;;3.60;;
26211;SDS011;13951;49.516;6.094;2023-04-23T00:15:06;3.20;;;2.90;;
26211;SDS011;13951;49.516;6.094;2023-04-23T00:17:39;4.13;;;3.13;;
26211;SDS011;13951;49.516;6.094;2023-04-23T00:20:13;4.18;;;3.50;;
26211;SDS011;13951;49.516;6.094;2023-04-23T00:22:47;5.03;;;3.33;;
26211;SDS011;13951;49.516;6.094;2023-04-23T00:25:20;4.50;;;3.30;;
26211;SDS011;13951;49.516;6.094;2023-04-23T00:27:53;4.10;;;3.17;;
26211;SDS011;13951;49.516;6.094;2023-04-23T00:30:26;5.33;;;3.67;;
26211;SDS011;13951;49.516;6.094;2023-04-23T00:32:59;6.03;;;3.37;;
26211;SDS011;13951;49.516;6.094;2023-04-23T00:35:32;3.70;;;3.00;;
26211;SDS011;13951;49.516;6.094;2023-04-23T00:38:06;3.80;;;3.23;;
26211;SDS011;13951;49.516;6.094;2023-04-23T00:40:39;3.57;;;3.27;;
26211;SDS011;13951;49.516;6.094;2023-04-23T00:43:13;4.73;;;3.57;;
26211;SDS011;13951;49.516;6.094;2023-04-23T00:45:47;4.87;;;3.67;;
26211;SDS011;13951;49.516;6.094;2023-04-23T00:48:20;4.23;;;3.33;;
26211;SDS011;13951;49.516;6.094;2023-04-23T00:51:03;4.93;;;3.23;;
26211;SDS011;13951;49.516;6.094;2023-04-23T00:53:37;3.67;;;3.20;;
26211;SDS011;13951;49.516;6.094;2023-04-23T00:56:10;4.57;;;3.53;;
26211;SDS011;13951;49.516;6.094;2023-04-23T00:58:45;3.67;;;3.10;;
26211;SDS011;13951;49.516;6.094;2023-04-23T01:01:21;5.73;;;3.40;;
26211;SDS011;13951;49.516;6.094;2023-04-23T01:03:55;8.77;;;3.10;;
26211;SDS011;13951;49.516;6.094;2023-04-23T01:06:28;4.27;;;3.57;;
26211;SDS011;13951;49.516;6.094;2023-04-23T01:09:04;4.13;;;3.10;;
26211;SDS011;13951;49.516;6.094;2023-04-23T01:11:41;3.60;;;3.27;;
26211;SDS011;13951;49.516;6.094;2023-04-23T01:14:15;3.57;;;3.10;;
26211;SDS011;13951;49.516;6.094;2023-04-23T01:16:48;4.87;;;3.40;;
26211;SDS011;13951;49.516;6.094;2023-04-23T01:19:22;4.37;;;3.30;;
26211;SDS011;13951;49.516;6.094;2023-04-23T01:21:55;5.93;;;3.17;;
26211;SDS011;13951;49.516;6.094;2023-04-23T01:24:31;4.13;;;3.40;;
26211;SDS011;13951;49.516;6.094;2023-04-23T01:27:04;5.60;;;3.80;;
26211;SDS011;13951;49.516;6.094;2023-04-23T01:29:38;5.77;;;3.60;;
26211;SDS011;13951;49.516;6.094;2023-04-23T01:32:11;5.63;;;3.67;;
26211;SDS011;13951;49.516;6.094;2023-04-23T01:34:45;4.70;;;3.73;;
26211;SDS011;13951;49.516;6.094;2023-04-23T01:37:20;6.13;;;3.17;;
26211;SDS011;13951;49.516;6.094;2023-04-23T01:39:53;4.97;;;3.63;;
26211;SDS011;13951;49.516;6.094;2023-04-23T01:42:26;5.40;;;3.90;;
26211;SDS011;13951;49.516;6.094;2023-04-23T01:45:00;6.53;;;4.30;;
26211;SDS011;13951;49.516;6.094;2023-04-23T01:47:34;3.57;;;3.20;;
26211;SDS011;13951;49.516;6.094;2023-04-23T01:50:07;4.27;;;3.30;;
26211;SDS011;13951;49.516;6.094;2023-04-23T01:52:41;5.43;;;4.00;;
26211;SDS011;13951;49.516;6.094;2023-04-23T01:55:16;5.30;;;3.73;;
26211;SDS011;13951;49.516;6.094;2023-04-23T01:57:55;5.30;;;3.90;;
26211;SDS011;13951;49.516;6.094;2023-04-23T02:00:28;5.00;;;3.90;;
26211;SDS011;13951;49.516;6.094;2023-04-23T02:03:00;5.93;;;3.90;;
26211;SDS011;13951;49.516;6.094;2023-04-23T02:05:34;4.83;;;3.73;;
26211;SDS011;13951;49.516;6.094;2023-04-23T02:08:08;5.60;;;4.13;;
26211;SDS011;13951;49.516;6.094;2023-04-23T02:10:43;6.80;;;3.80;;
26211;SDS011;13951;49.516;6.094;2023-04-23T02:13:16;4.27;;;3.63;;
26211;SDS011;13951;49.516;6.094;2023-04-23T02:15:49;5.60;;;3.80;;
26211;SDS011;13951;49.516;6.094;2023-04-23T02:18:22;7.30;;;4.07;;
26211;SDS011;13951;49.516;6.094;2023-04-23T02:20:55;5.20;;;3.80;;
26211;SDS011;13951;49.516;6.094;2023-04-23T02:23:29;6.20;;;3.53;;
26211;SDS011;13951;49.516;6.094;2023-04-23T02:26:02;5.37;;;4.33;;
26211;SDS011;13951;49.516;6.094;2023-04-23T02:28:35;5.80;;;4.20;;
26211;SDS011;13951;49.516;6.094;2023-04-23T02:31:08;5.50;;;3.93;;
26211;SDS011;13951;49.516;6.094;2023-04-23T02:33:43;4.50;;;3.63;;
26211;SDS011;13951;49.516;6.094;2023-04-23T02:36:18;4.93;;;4.33;;
26211;SDS011;13951;49.516;6.094;2023-04-23T02:38:51;4.63;;;3.53;;
26211;SDS011;13951;49.516;6.094;2023-04-23T02:41:24;4.30;;;3.63;;
26211;SDS011;13951;49.516;6.094;2023-04-23T02:43:56;4.77;;;3.70;;
26211;SDS011;13951;49.516;6.094;2023-04-23T02:46:30;4.87;;;3.30;;
26211;SDS011;13951;49.516;6.094;2023-04-23T02:49:03;4.80;;;3.43;;
26211;SDS011;13951;49.516;6.094;2023-04-23T02:51:38;4.40;;;3.80;;
26211;SDS011;13951;49.516;6.094;2023-04-23T02:54:11;5.40;;;3.57;;
26211;SDS011;13951;49.516;6.094;2023-04-23T02:56:44;4.70;;;3.23;;
26211;SDS011;13951;49.516;6.094;2023-04-23T02:59:18;4.10;;;3.17;;
26211;SDS011;13951;49.516;6.094;2023-04-23T03:01:50;4.37;;;3.20;;
26211;SDS011;13951;49.516;6.094;2023-04-23T03:04:24;6.03;;;3.37;;
26211;SDS011;13951;49.516;6.094;2023-04-23T03:06:57;5.77;;;3.00;;
26211;SDS011;13951;49.516;6.094;2023-04-23T03:09:30;5.70;;;3.17;;
26211;SDS011;13951;49.516;6.094;2023-04-23T03:12:02;5.43;;;3.10;;
26211;SDS011;13951;49.516;6.094;2023-04-23T03:14:35;5.63;;;3.27;;
26211;SDS011;13951;49.516;6.094;2023-04-23T03:17:08;2.80;;;2.50;;
26211;SDS011;13951;49.516;6.094;2023-04-23T03:19:42;3.40;;;2.97;;
26211;SDS011;13951;49.516;6.094;2023-04-23T03:22:16;4.80;;;3.10;;
26211;SDS011;13951;49.516;6.094;2023-04-23T03:24:50;3.93;;;3.00;;
26211;SDS011;13951;49.516;6.094;2023-04-23T03:27:24;3.47;;;2.83;;
26211;SDS011;13951;49.516;6.094;2023-04-23T03:29:57;4.40;;;3.40;;
26211;SDS011;13951;49.516;6.094;2023-04-23T03:32:30;5.67;;;3.40;;
26211;SDS011;13951;49.516;6.094;2023-04-23T03:35:03;3.50;;;2.90;;
26211;SDS011;13951;49.516;6.094;2023-04-23T03:37:39;4.63;;;3.60;;
26211;SDS011;13951;49.516;6.094;2023-04-23T03:40:12;5.20;;;3.20;;
26211;SDS011;13951;49.516;6.094;2023-04-23T03:42:46;4.10;;;3.10;;
26211;SDS011;13951;49.516;6.094;2023-04-23T03:45:21;3.07;;;2.77;;
26211;SDS011;13951;49.516;6.094;2023-04-23T03:47:55;5.63;;;3.57;;
26211;SDS011;13951;49.516;6.094;2023-04-23T03:50:28;5.53;;;2.97;;
26211;SDS011;13951;49.516;6.094;2023-04-23T03:53:13;3.67;;;3.03;;
26211;SDS011;13951;49.516;6.094;2023-04-23T03:56:06;5.23;;;3.07;;
26211;SDS011;13951;49.516;6.094;2023-04-23T03:58:50;4.32;;;3.20;;
26211;SDS011;13951;49.516;6.094;2023-04-23T04:01:23;3.60;;;2.73;;
26211;SDS011;13951;49.516;6.094;2023-04-23T04:03:55;3.70;;;3.07;;
26211;SDS011;13951;49.516;6.094;2023-04-23T04:06:29;4.30;;;3.13;;
26211;SDS011;13951;49.516;6.094;2023-04-23T04:09:02;4.10;;;2.93;;
26211;SDS011;13951;49.516;6.094;2023-04-23T04:11:35;4.20;;;2.97;;
26211;SDS011;13951;49.516;6.094;2023-04-23T04:14:08;3.43;;;2.77;;
26211;SDS011;13951;49.516;6.094;2023-04-23T04:16:41;2.87;;;2.63;;
26211;SDS011;13951;49.516;6.094;2023-04-23T04:19:14;3.60;;;2.60;;
26211;SDS011;13951;49.516;6.094;2023-04-23T04:21:47;5.47;;;3.20;;
26211;SDS011;13951;49.516;6.094;2023-04-23T04:24:20;3.90;;;3.00;;
26211;SDS011;13951;49.516;6.094;2023-04-23T04:26:57;4.50;;;2.70;;
26211;SDS011;13951;49.516;6.094;2023-04-23T04:29:34;4.37;;;3.07;;
26211;SDS011;13951;49.516;6.094;2023-04-23T04:32:07;6.93;;;3.10;;
26211;SDS011;13951;49.516;6.094;2023-04-23T04:34:41;3.20;;;2.90;;
26211;SDS011;13951;49.516;6.094;2023-04-23T04:37:15;4.17;;;3.07;;
26211;SDS011;13951;49.516;6.094;2023-04-23T04:39:49;3.27;;;2.77;;
26211;SDS011;13951;49.516;6.094;2023-04-23T04:42:22;3.53;;;2.87;;
26211;SDS011;13951;49.516;6.094;2023-04-23T04:44:56;3.50;;;2.95;;
26211;SDS011;13951;49.516;6.094;2023-04-23T04:47:32;3.47;;;3.03;;
26211;SDS011;13951;49.516;6.094;2023-04-23T04:50:05;3.57;;;3.00;;
26211;SDS011;13951;49.516;6.094;2023-04-23T04:52:38;5.17;;;3.43;;
26211;SDS011;13951;49.516;6.094;2023-04-23T04:55:12;5.43;;;3.50;;
26211;SDS011;13951;49.516;6.094;2023-04-23T04:57:45;4.50;;;2.80;;
26211;SDS011;13951;49.516;6.094;2023-04-23T05:00:20;2.87;;;2.53;;
26211;SDS011;13951;49.516;6.094;2023-04-23T05:02:59;3.57;;;2.73;;
26211;SDS011;13951;49.516;6.094;2023-04-23T05:05:34;3.00;;;2.60;;
26211;SDS011;13951;49.516;6.094;2023-04-23T05:08:07;6.43;;;3.23;;
26211;SDS011;13951;49.516;6.094;2023-04-23T05:10:41;3.00;;;2.70;;
26211;SDS011;13951;49.516;6.094;2023-04-23T05:13:14;3.60;;;2.97;;
26211;SDS011;13951;49.516;6.094;2023-04-23T05:15:47;3.57;;;2.70;;
26211;SDS011;13951;49.516;6.094;2023-04-23T05:18:20;4.17;;;2.83;;
26211;SDS011;13951;49.516;6.094;2023-04-23T05:20:53;3.97;;;2.87;;
26211;SDS011;13951;49.516;6.094;2023-04-23T05:23:26;6.97;;;3.00;;
26211;SDS011;13951;49.516;6.094;2023-04-23T05:25:59;2.90;;;2.57;;
26211;SDS011;13951;49.516;6.094;2023-04-23T05:28:34;3.33;;;2.57;;
26211;SDS011;13951;49.516;6.094;2023-04-23T05:31:08;4.43;;;2.60;;
26211;SDS011;13951;49.516;6.094;2023-04-23T05:33:41;3.10;;;2.80;;
26211;SDS011;13951;49.516;6.094;2023-04-23T05:36:22;5.20;;;3.17;;
26211;SDS011;13951;49.516;6.094;2023-04-23T05:38:55;3.70;;;2.93;;
26211;SDS011;13951;49.516;6.094;2023-04-23T05:41:28;6.43;;;3.13;;
26211;SDS011;13951;49.516;6.094;2023-04-23T05:44:01;5.13;;;3.00;;
26211;SDS011;13951;49.516;6.094;2023-04-23T05:46:34;3.77;;;3.17;;
26211;SDS011;13951;49.516;6.094;2023-04-23T05:49:08;3.53;;;2.90;;
26211;SDS011;13951;49.516;6.094;2023-04-23T05:51:40;3.37;;;2.80;;
26211;SDS011;13951;49.516;6.094;2023-04-23T05:54:15;4.38;;;3.30;;
26211;SDS011;13951;49.516;6.094;2023-04-23T05:56:48;6.70;;;2.90;;
26211;SDS011;13951;49.516;6.094;2023-04-23T05:59:23;3.70;;;2.77;;
26211;SDS011;13951;49.516;6.094;2023-04-23T06:01:56;3.73;;;2.83;;
26211;SDS011;13951;49.516;6.094;2023-04-23T06:04:30;3.43;;;2.70;;
26211;SDS011;13951;49.516;6.094;2023-04-23T06:07:03;4.00;;;3.03;;
26211;SDS011;13951;49.516;6.094;2023-04-23T06:09:36;3.30;;;2.60;;
26211;SDS011;13951;49.516;6.094;2023-04-23T06:12:09;4.37;;;2.83;;
26211;SDS011;13951;49.516;6.094;2023-04-23T06:14:42;3.90;;;2.63;;
26211;SDS011;13951;49.516;6.094;2023-04-23T06:17:15;4.57;;;2.70;;
26211;SDS011;13951;49.516;6.094;2023-04-23T06:19:49;3.33;;;2.50;;
26211;SDS011;13951;49.516;6.094;2023-04-23T06:22:24;2.93;;;2.40;;
26211;SDS011;13951;49.516;6.094;2023-04-23T06:24:57;3.33;;;2.40;;
26211;SDS011;13951;49.516;6.094;2023-04-23T06:27:30;6.13;;;2.53;;
26211;SDS011;13951;49.516;6.094;2023-04-23T06:30:10;3.23;;;2.40;;
26211;SDS011;13951;49.516;6.094;2023-04-23T06:32:44;4.13;;;2.67;;
26211;SDS011;13951;49.516;6.094;2023-04-23T06:35:18;3.33;;;2.73;;
26211;SDS011;13951;49.516;6.094;2023-04-23T06:37:51;3.00;;;2.70;;
26211;SDS011;13951;49.516;6.094;2023-04-23T06:40:24;6.37;;;2.63;;
26211;SDS011;13951;49.516;6.094;2023-04-23T06:42:57;5.23;;;2.80;;
26211;SDS011;13951;49.516;6.094;2023-04-23T06:45:50;4.43;;;2.47;;
26211;SDS011;13951;49.516;6.094;2023-04-23T06:48:23;3.40;;;2.40;;
26211;SDS011;13951;49.516;6.094;2023-04-23T06:50:58;2.90;;;2.23;;
26211;SDS011;13951;49.516;6.094;2023-04-23T06:53:32;2.50;;;2.30;;
26211;SDS011;13951;49.516;6.094;2023-04-23T06:56:05;3.53;;;2.37;;
26211;SDS011;13951;49.516;6.094;2023-04-23T06:58:39;4.00;;;2.40;;
26211;SDS011;13951;49.516;6.094;2023-04-23T07:01:20;3.37;;;2.40;;
26211;SDS011;13951;49.516;6.094;2023-04-23T07:03:54;3.47;;;2.40;;
26211;SDS011;13951;49.516;6.094;2023-04-23T07:06:27;4.70;;;2.30;;
26211;SDS011;13951;49.516;6.094;2023-04-23T07:09:03;3.73;;;2.53;;
26211;SDS011;13951;49.516;6.094;2023-04-23T07:11:37;3.70;;;2.50;;
26211;SDS011;13951;49.516;6.094;2023-04-23T07:14:10;3.53;;;2.40;;
26211;SDS011;13951;49.516;6.094;2023-04-23T07:16:43;5.47;;;2.47;;
26211;SDS011;13951;49.516;6.094;2023-04-23T07:19:16;2.87;;;2.13;;
26211;SDS011;13951;49.516;6.094;2023-04-23T07:21:49;2.73;;;2.13;;
26211;SDS011;13951;49.516;6.094;2023-04-23T07:24:22;3.30;;;2.20;;
26211;SDS011;13951;49.516;6.094;2023-04-23T07:26:57;2.80;;;2.23;;
26211;SDS011;13951;49.516;6.094;2023-04-23T07:29:30;6.23;;;2.30;;
26211;SDS011;13951;49.516;6.094;2023-04-23T07:32:03;2.73;;;2.03;;
26211;SDS011;13951;49.516;6.094;2023-04-23T07:34:37;2.37;;;1.90;;
26211;SDS011;13951;49.516;6.094;2023-04-23T07:37:10;2.73;;;2.20;;
26211;SDS011;13951;49.516;6.094;2023-04-23T07:39:42;5.53;;;2.10;;
26211;SDS011;13951;49.516;6.094;2023-04-23T07:42:16;4.13;;;1.90;;
26211;SDS011;13951;49.516;6.094;2023-04-23T07:44:49;2.77;;;2.00;;
26211;SDS011;13951;49.516;6.094;2023-04-23T07:47:22;5.07;;;2.20;;
26211;SDS011;13951;49.516;6.094;2023-04-23T07:49:55;4.10;;;1.83;;
26211;SDS011;13951;49.516;6.094;2023-04-23T07:52:28;3.33;;;2.00;;
26211;SDS011;13951;49.516;6.094;2023-04-23T07:55:02;2.40;;;1.77;;
26211;SDS011;13951;49.516;6.094;2023-04-23T07:57:35;3.17;;;1.77;;
26211;SDS011;13951;49.516;6.094;2023-04-23T08:00:08;2.10;;;1.60;;
26211;SDS011;13951;49.516;6.094;2023-04-23T08:02:45;3.30;;;1.60;;
26211;SDS011;13951;49.516;6.094;2023-04-23T08:05:18;1.67;;;1.40;;
26211;SDS011;13951;49.516;6.094;2023-04-23T08:07:52;2.07;;;1.60;;
26211;SDS011;13951;49.516;6.094;2023-04-23T08:10:25;5.73;;;1.73;;
26211;SDS011;13951;49.516;6.094;2023-04-23T08:12:58;2.10;;;1.90;;
26211;SDS011;13951;49.516;6.094;2023-04-23T08:15:31;2.80;;;2.30;;
26211;SDS011;13951;49.516;6.094;2023-04-23T08:18:04;3.60;;;2.20;;
26211;SDS011;13951;49.516;6.094;2023-04-23T08:20:38;2.83;;;2.20;;
26211;SDS011;13951;49.516;6.094;2023-04-23T08:23:11;2.20;;;2.00;;
26211;SDS011;13951;49.516;6.094;2023-04-23T08:25:44;3.50;;;2.53;;
26211;SDS011;13951;49.516;6.094;2023-04-23T08:28:17;2.80;;;2.10;;
26211;SDS011;13951;49.516;6.094;2023-04-23T08:30:51;6.13;;;2.37;;
26211;SDS011;13951;49.516;6.094;2023-04-23T08:33:24;3.93;;;2.20;;
26211;SDS011;13951;49.516;6.094;2023-04-23T08:35:57;4.50;;;2.07;;
26211;SDS011;13951;49.516;6.094;2023-04-23T08:38:30;3.13;;;1.80;;
26211;SDS011;13951;49.516;6.094;2023-04-23T08:41:04;4.80;;;1.50;;
26211;SDS011;13951;49.516;6.094;2023-04-23T08:43:51;4.10;;;1.73;;
26211;SDS011;13951;49.516;6.094;2023-04-23T08:46:43;2.27;;;1.40;;
26211;SDS011;13951;49.516;6.094;2023-04-23T08:49:17;2.83;;;1.50;;
26211;SDS011;13951;49.516;6.094;2023-04-23T08:51:51;1.77;;;1.47;;
26211;SDS011;13951;49.516;6.094;2023-04-23T08:54:25;2.63;;;1.70;;
26211;SDS011;13951;49.516;6.094;2023-04-23T08:56:58;4.13;;;2.03;;
26211;SDS011;13951;49.516;6.094;2023-04-23T08:59:32;1.70;;;1.10;;
26211;SDS011;13951;49.516;6.094;2023-04-23T09:02:06;2.20;;;1.30;;
26211;SDS011;13951;49.516;6.094;2023-04-23T09:04:41;2.20;;;1.43;;
26211;SDS011;13951;49.516;6.094;2023-04-23T09:07:16;2.23;;;1.30;;
26211;SDS011;13951;49.516;6.094;2023-04-23T09:09:50;1.93;;;1.10;;
26211;SDS011;13951;49.516;6.094;2023-04-23T09:12:23;2.20;;;1.37;;
26211;SDS011;13951;49.516;6.094;2023-04-23T09:14:56;2.53;;;1.10;;
26211;SDS011;13951;49.516;6.094;2023-04-23T09:17:29;2.53;;;1.30;;
26211;SDS011;13951;49.516;6.094;2023-04-23T09:20:05;2.40;;;1.10;;
26211;SDS011;13951;49.516;6.094;2023-04-23T09:22:41;2.90;;;1.20;;
26211;SDS011;13951;49.516;6.094;2023-04-23T09:25:19;2.60;;;1.57;;
26211;SDS011;13951;49.516;6.094;2023-04-23T09:27:54;6.60;;;2.10;;
26211;SDS011;13951;49.516;6.094;2023-04-23T09:30:30;4.23;;;1.87;;
26211;SDS011;13951;49.516;6.094;2023-04-23T09:33:03;1.67;;;1.53;;
26211;SDS011;13951;49.516;6.094;2023-04-23T09:35:36;1.93;;;1.57;;
26211;SDS011;13951;49.516;6.094;2023-04-23T09:38:12;2.93;;;1.60;;
26211;SDS011;13951;49.516;6.094;2023-04-23T09:40:46;2.27;;;1.70;;
26211;SDS011;13951;49.516;6.094;2023-04-23T09:43:18;2.80;;;1.93;;
26211;SDS011;13951;49.516;6.094;2023-04-23T09:45:51;3.47;;;2.10;;
26211;SDS011;13951;49.516;6.094;2023-04-23T09:48:24;3.63;;;1.87;;
26211;SDS011;13951;49.516;6.094;2023-04-23T09:51:13;2.60;;;1.80;;
26211;SDS011;13951;49.516;6.094;2023-04-23T09:53:46;2.77;;;1.90;;
26211;SDS011;13951;49.516;6.094;2023-04-23T09:56:19;3.07;;;2.00;;
26211;SDS011;13951;49.516;6.094;2023-04-23T09:58:53;3.83;;;2.07;;
26211;SDS011;13951;49.516;6.094;2023-04-23T10:01:26;2.80;;;1.90;;
26211;SDS011;13951;49.516;6.094;2023-04-23T10:04:01;3.33;;;2.00;;
26211;SDS011;13951;49.516;6.094;2023-04-23T10:06:34;5.00;;;2.17;;
26211;SDS011;13951;49.516;6.094;2023-04-23T10:09:11;1.83;;;1.63;;
26211;SDS011;13951;49.516;6.094;2023-04-23T10:11:44;3.53;;;1.90;;
26211;SDS011;13951;49.516;6.094;2023-04-23T10:14:18;2.97;;;1.87;;
26211;SDS011;13951;49.516;6.094;2023-04-23T10:16:56;2.78;;;1.75;;
26211;SDS011;13951;49.516;6.094;2023-04-23T10:19:33;2.92;;;1.98;;
26211;SDS011;13951;49.516;6.094;2023-04-23T10:22:12;3.33;;;1.60;;
26211;SDS011;13951;49.516;6.094;2023-04-23T10:24:52;8.38;;;4.53;;
26211;SDS011;13951;49.516;6.094;2023-04-23T10:27:29;3.25;;;2.17;;
26211;SDS011;13951;49.516;6.094;2023-04-23T10:30:20;3.08;;;1.50;;
26211;SDS011;13951;49.516;6.094;2023-04-23T10:32:54;2.17;;;1.77;;
26211;SDS011;13951;49.516;6.094;2023-04-23T10:35:30;6.35;;;1.70;;
26211;SDS011;13951;49.516;6.094;2023-04-23T10:38:04;5.32;;;2.28;;
26211;SDS011;13951;49.516;6.094;2023-04-23T10:40:37;2.83;;;1.88;;
26211;SDS011;13951;49.516;6.094;2023-04-23T10:43:12;2.70;;;1.63;;
26211;SDS011;13951;49.516;6.094;2023-04-23T10:45:45;1.98;;;1.42;;
26211;SDS011;13951;49.516;6.094;2023-04-23T10:48:22;2.45;;;1.70;;
26211;SDS011;13951;49.516;6.094;2023-04-23T10:50:58;1.92;;;1.20;;
26211;SDS011;13951;49.516;6.094;2023-04-23T10:53:53;4.07;;;1.45;;
26211;SDS011;13951;49.516;6.094;2023-04-23T10:56:28;1.60;;;1.20;;
26211;SDS011;13951;49.516;6.094;2023-04-23T10:59:01;2.17;;;1.30;;
26211;SDS011;13951;49.516;6.094;2023-04-23T11:01:37;3.13;;;1.30;;
26211;SDS011;13951;49.516;6.094;2023-04-23T11:04:19;2.63;;;1.30;;
26211;SDS011;13951;49.516;6.094;2023-04-23T11:07:03;1.75;;;1.50;;
26211;SDS011;13951;49.516;6.094;2023-04-23T11:09:46;1.92;;;1.30;;
26211;SDS011;13951;49.516;6.094;2023-04-23T11:14:57;2.10;;;1.20;;
26211;SDS011;13951;49.516;6.094;2023-04-23T11:20:12;1.90;;;1.40;;
26211;SDS011;13951;49.516;6.094;2023-04-23T11:22:52;4.40;;;1.42;;
26211;SDS011;13951;49.516;6.094;2023-04-23T11:25:28;3.47;;;1.63;;
26211;SDS011;13951;49.516;6.094;2023-04-23T11:28:03;2.00;;;1.60;;
26211;SDS011;13951;49.516;6.094;2023-04-23T11:30:37;2.38;;;1.60;;
26211;SDS011;13951;49.516;6.094;2023-04-23T11:33:10;2.35;;;1.52;;
26211;SDS011;13951;49.516;6.094;2023-04-23T11:35:43;2.13;;;1.60;;
26211;SDS011;13951;49.516;6.094;2023-04-23T11:38:19;3.42;;;1.77;;
26211;SDS011;13951;49.516;6.094;2023-04-23T11:40:53;3.60;;;1.83;;
26211;SDS011;13951;49.516;6.094;2023-04-23T11:43:26;1.67;;;1.58;;
26211;SDS011;13951;49.516;6.094;2023-04-23T11:46:01;2.80;;;1.73;;
26211;SDS011;13951;49.516;6.094;2023-04-23T11:48:34;2.80;;;2.00;;
26211;SDS011;13951;49.516;6.094;2023-04-23T11:51:07;3.08;;;2.10;;
26211;SDS011;13951;49.516;6.094;2023-04-23T11:53:46;2.08;;;1.83;;
26211;SDS011;13951;49.516;6.094;2023-04-23T11:56:20;4.00;;;2.25;;
26211;SDS011;13951;49.516;6.094;2023-04-23T11:58:58;3.22;;;1.98;;
26211;SDS011;13951;49.516;6.094;2023-04-23T12:01:42;1.85;;;1.70;;
26211;SDS011;13951;49.516;6.094;2023-04-23T12:04:20;2.67;;;1.90;;
26211;SDS011;13951;49.516;6.094;2023-04-23T12:06:58;2.42;;;1.65;;
26211;SDS011;13951;49.516;6.094;2023-04-23T12:09:45;2.95;;;1.70;;
26211;SDS011;13951;49.516;6.094;2023-04-23T12:12:34;3.65;;;1.70;;
26211;SDS011;13951;49.516;6.094;2023-04-23T12:15:08;2.17;;;1.98;;
26211;SDS011;13951;49.516;6.094;2023-04-23T12:17:41;2.38;;;2.10;;
26211;SDS011;13951;49.516;6.094;2023-04-23T12:20:21;2.50;;;1.75;;
26211;SDS011;13951;49.516;6.094;2023-04-23T12:22:55;2.45;;;1.85;;
26211;SDS011;13951;49.516;6.094;2023-04-23T12:25:43;2.95;;;1.83;;
26211;SDS011;13951;49.516;6.094;2023-04-23T12:28:17;1.75;;;1.55;;
26211;SDS011;13951;49.516;6.094;2023-04-23T12:30:59;3.90;;;1.90;;
26211;SDS011;13951;49.516;6.094;2023-04-23T12:33:34;2.33;;;1.55;;
26211;SDS011;13951;49.516;6.094;2023-04-23T12:36:09;1.80;;;1.38;;
26211;SDS011;13951;49.516;6.094;2023-04-23T12:38:43;1.50;;;1.20;;
26211;SDS011;13951;49.516;6.094;2023-04-23T12:41:17;1.55;;;1.45;;
26211;SDS011;13951;49.516;6.094;2023-04-23T12:43:51;1.98;;;1.27;;
26211;SDS011;13951;49.516;6.094;2023-04-23T12:46:26;1.23;;;1.13;;
26211;SDS011;13951;49.516;6.094;2023-04-23T12:48:59;2.45;;;1.13;;
26211;SDS011;13951;49.516;6.094;2023-04-23T12:51:39;4.10;;;2.58;;
26211;SDS011;13951;49.516;6.094;2023-04-23T12:54:12;3.92;;;2.88;;
26211;SDS011;13951;49.516;6.094;2023-04-23T12:56:45;1.42;;;1.30;;
26211;SDS011;13951;49.516;6.094;2023-04-23T12:59:20;1.42;;;1.15;;
26211;SDS011;13951;49.516;6.094;2023-04-23T13:01:54;1.55;;;1.23;;
26211;SDS011;13951;49.516;6.094;2023-04-23T13:04:28;1.70;;;1.30;;
26211;SDS011;13951;49.516;6.094;2023-04-23T13:07:03;0.88;;;0.88;;
26211;SDS011;13951;49.516;6.094;2023-04-23T13:09:36;1.48;;;0.98;;
26211;SDS011;13951;49.516;6.094;2023-04-23T13:12:09;2.67;;;1.20;;
26211;SDS011;13951;49.516;6.094;2023-04-23T13:14:42;1.45;;;1.10;;
26211;SDS011;13951;49.516;6.094;2023-04-23T13:17:15;1.67;;;1.20;;
26211;SDS011;13951;49.516;6.094;2023-04-23T13:19:48;1.30;;;1.20;;
26211;SDS011;13951;49.516;6.094;2023-04-23T13:22:28;1.30;;;1.20;;
26211;SDS011;13951;49.516;6.094;2023-04-23T13:25:03;1.70;;;1.10;;
26211;SDS011;13951;49.516;6.094;2023-04-23T13:27:50;1.30;;;1.20;;
26211;SDS011;13951;49.516;6.094;2023-04-23T13:30:23;1.73;;;1.07;;
26211;SDS011;13951;49.516;6.094;2023-04-23T13:32:58;1.30;;;1.20;;
26211;SDS011;13951;49.516;6.094;2023-04-23T13:35:31;3.47;;;1.57;;
26211;SDS011;13951;49.516;6.094;2023-04-23T13:38:04;2.67;;;2.40;;
26211;SDS011;13951;49.516;6.094;2023-04-23T13:40:37;1.43;;;1.00;;
26211;SDS011;13951;49.516;6.094;2023-04-23T13:43:26;1.50;;;1.00;;
26211;SDS011;13951;49.516;6.094;2023-04-23T13:46:15;1.13;;;1.00;;
26211;SDS011;13951;49.516;6.094;2023-04-23T13:49:05;2.43;;;0.97;;
26211;SDS011;13951;49.516;6.094;2023-04-23T13:51:53;2.70;;;0.90;;
26211;SDS011;13951;49.516;6.094;2023-04-23T13:54:45;0.77;;;0.70;;
26211;SDS011;13951;49.516;6.094;2023-04-23T13:57:54;1.97;;;0.70;;
26211;SDS011;13951;49.516;6.094;2023-04-23T14:01:05;1.53;;;0.77;;
26211;SDS011;13951;49.516;6.094;2023-04-23T14:04:53;1.77;;;0.90;;
26211;SDS011;13951;49.516;6.094;2023-04-23T14:08:36;0.80;;;0.73;;
26211;SDS011;13951;49.516;6.094;2023-04-23T14:11:51;0.70;;;0.70;;
26211;SDS011;13951;49.516;6.094;2023-04-23T14:15:21;1.90;;;0.70;;
26211;SDS011;13951;49.516;6.094;2023-04-23T14:18:34;0.70;;;0.70;;
26211;SDS011;13951;49.516;6.094;2023-04-23T14:21:52;1.10;;;0.80;;
26211;SDS011;13951;49.516;6.094;2023-04-23T14:24:44;1.73;;;1.00;;
26211;SDS011;13951;49.516;6.094;2023-04-23T14:28:44;1.80;;;0.97;;
26211;SDS011;13951;49.516;6.094;2023-04-23T14:32:37;0.90;;;0.80;;
26211;SDS011;13951;49.516;6.094;2023-04-23T14:56:31;1.00;;;0.90;;
26211;SDS011;13951;49.516;6.094;2023-04-23T15:00:05;1.43;;;1.00;;
26211;SDS011;13951;49.516;6.094;2023-04-23T15:03:29;0.73;;;0.73;;
26211;SDS011;13951;49.516;6.094;2023-04-23T15:07:24;1.33;;;0.93;;
26211;SDS011;13951;49.516;6.094;2023-04-23T15:11:01;1.23;;;0.93;;
26211;SDS011;13951;49.516;6.094;2023-04-23T15:14:56;1.87;;;0.90;;
26211;SDS011;13951;49.516;6.094;2023-04-23T15:18:13;1.10;;;1.00;;
26211;SDS011;13951;49.516;6.094;2023-04-23T15:22:11;0.97;;;0.90;;
26211;SDS011;13951;49.516;6.094;2023-04-23T15:25:49;1.17;;;0.93;;
26211;SDS011;13951;49.516;6.094;2023-04-23T15:30:18;1.20;;;0.90;;
26211;SDS011;13951;49.516;6.094;2023-04-23T15:40:28;1.10;;;1.00;;
26211;SDS011;13951;49.516;6.094;2023-04-23T15:45:00;2.50;;;1.40;;
26211;SDS011;13951;49.516;6.094;2023-04-23T16:00:03;1.40;;;0.90;;
26211;SDS011;13951;49.516;6.094;2023-04-23T16:04:01;1.53;;;1.33;;
26211;SDS011;13951;49.516;6.094;2023-04-23T16:07:48;2.50;;;1.87;;
26211;SDS011;13951;49.516;6.094;2023-04-23T16:11:16;4.40;;;1.20;;
26211;SDS011;13951;49.516;6.094;2023-04-23T16:14:49;1.57;;;1.07;;
26211;SDS011;13951;49.516;6.094;2023-04-23T16:17:45;2.10;;;1.30;;
26211;SDS011;13951;49.516;6.094;2023-04-23T16:20:34;1.13;;;1.03;;
26211;SDS011;13951;49.516;6.094;2023-04-23T16:23:21;1.20;;;1.10;;
26211;SDS011;13951;49.516;6.094;2023-04-23T16:26:54;1.30;;;1.00;;
26211;SDS011;13951;49.516;6.094;2023-04-23T16:29:46;1.93;;;1.33;;
26211;SDS011;13951;49.516;6.094;2023-04-23T16:33:01;1.87;;;1.10;;
26211;SDS011;13951;49.516;6.094;2023-04-23T16:36:22;1.63;;;1.40;;
26211;SDS011;13951;49.516;6.094;2023-04-23T16:39:10;2.13;;;1.37;;
26211;SDS011;13951;49.516;6.094;2023-04-23T16:42:00;2.30;;;1.50;;
26211;SDS011;13951;49.516;6.094;2023-04-23T16:44:49;1.57;;;1.40;;
26211;SDS011;13951;49.516;6.094;2023-04-23T16:47:39;2.70;;;1.30;;
26211;SDS011;13951;49.516;6.094;2023-04-23T16:50:28;2.00;;;1.20;;
26211;SDS011;13951;49.516;6.094;2023-04-23T16:53:15;3.33;;;1.23;;